Time;durP1;ratioP1;P1;durP2;ratioP2;P2;SDS_P1;SDS_P2;PMS_P1;PMS_P2;Temp;Humidity;BMP_temperature;BMP_pressure;BME280_temperature;BME280_humidity;BME280_pressure;Samples;Min_cycle;Max_cycle;Signal;HPM_P1;HPM_P2
2021/03/03 00:01:00;;;;;;;30.80;17.17;;;5.90;86.30;;;;;;4955293;28;20419;-67
2021/03/03 00:03:25;;;;;;;28.77;15.85;;;5.80;86.50;;;;;;4938591;29;20118;-68
2021/03/03 00:05:51;;;;;;;29.27;15.63;;;5.80;86.30;;;;;;4955198;28;20083;-67
2021/03/03 00:08:16;;;;;;;28.10;15.02;;;5.90;86.30;;;;;;4940825;29;20023;-68
2021/03/03 00:10:42;;;;;;;30.10;16.50;;;5.80;86.50;;;;;;4956941;28;20130;-68
2021/03/03 00:13:08;;;;;;;30.73;16.58;;;5.80;86.20;;;;;;4955606;28;20028;-68
2021/03/03 00:15:33;;;;;;;28.85;16.27;;;5.80;86.60;;;;;;4936946;29;20089;-67
2021/03/03 00:17:59;;;;;;;32.88;16.08;;;5.80;86.70;;;;;;4955383;28;20036;-68
2021/03/03 00:20:24;;;;;;;29.02;15.65;;;5.80;86.60;;;;;;4969319;28;20031;-67
2021/03/03 00:22:50;;;;;;;30.88;17.48;;;5.70;86.40;;;;;;4940161;29;20477;-68
2021/03/03 00:25:15;;;;;;;27.20;14.45;;;5.70;86.70;;;;;;4941190;29;20062;-67
2021/03/03 00:27:41;;;;;;;31.88;16.33;;;5.70;86.80;;;;;;4956112;28;20466;-68
2021/03/03 00:30:10;;;;;;;29.90;16.25;;;5.70;86.80;;;;;;4940433;28;20354;-68
2021/03/03 00:32:36;;;;;;;31.40;15.88;;;5.70;86.80;;;;;;4941136;28;20070;-68
2021/03/03 00:35:02;;;;;;;30.10;15.70;;;5.70;86.70;;;;;;4936870;29;20063;-68
2021/03/03 00:37:28;;;;;;;32.72;17.05;;;5.70;86.60;;;;;;4940118;29;20049;-67
2021/03/03 00:39:53;;;;;;;31.92;16.85;;;5.70;86.80;;;;;;4953185;28;20043;-68
2021/03/03 00:42:19;;;;;;;30.27;16.17;;;5.70;87.20;;;;;;4954574;28;20034;-68
2021/03/03 00:44:44;;;;;;;31.55;16.48;;;5.70;87.00;;;;;;4954586;28;20036;-68
2021/03/03 00:47:10;;;;;;;32.78;17.30;;;5.60;87.30;;;;;;4939234;29;20038;-67
2021/03/03 00:49:36;;;;;;;33.97;17.63;;;5.60;87.70;;;;;;4938771;29;20466;-68
2021/03/03 00:52:01;;;;;;;34.40;17.67;;;5.60;87.70;;;;;;4941479;29;20042;-68
2021/03/03 00:54:27;;;;;;;30.48;16.65;;;5.60;87.70;;;;;;4938375;29;20031;-68
2021/03/03 00:56:52;;;;;;;31.00;16.35;;;5.60;87.60;;;;;;4939823;29;20032;-67
2021/03/03 00:59:18;;;;;;;31.98;16.48;;;5.60;87.50;;;;;;4937720;29;20297;-68
2021/03/03 01:01:44;;;;;;;32.83;18.25;;;5.60;87.50;;;;;;4964718;23;20045;-75
2021/03/03 01:04:09;;;;;;;27.95;15.45;;;5.60;87.90;;;;;;4959322;28;20121;-75
2021/03/03 01:06:35;;;;;;;30.38;17.02;;;5.60;87.70;;;;;;4978276;28;20025;-75
2021/03/03 01:09:00;;;;;;;30.88;17.30;;;5.50;87.90;;;;;;4972465;28;20026;-73
2021/03/03 01:11:26;;;;;;;33.67;18.60;;;5.50;88.10;;;;;;4977441;28;20037;-73
2021/03/03 01:13:51;;;;;;;35.22;17.35;;;5.50;88.30;;;;;;4996280;28;20030;-74
2021/03/03 01:16:17;;;;;;;33.47;17.77;;;5.50;88.10;;;;;;4995648;28;20543;-73
2021/03/03 01:18:43;;;;;;;34.65;18.23;;;5.50;88.50;;;;;;4992971;28;20050;-74
2021/03/03 01:21:08;;;;;;;34.08;17.30;;;5.50;88.80;;;;;;4980236;28;20430;-74
2021/03/03 01:23:34;;;;;;;33.70;18.70;;;5.40;88.50;;;;;;4994755;28;20022;-73
2021/03/03 01:26:00;;;;;;;33.42;17.63;;;5.40;89.20;;;;;;4995378;28;20472;-74
2021/03/03 01:28:26;;;;;;;33.30;18.38;;;5.40;89.20;;;;;;4996468;28;20074;-73
2021/03/03 01:30:52;;;;;;;33.35;17.38;;;5.40;89.20;;;;;;4996888;28;20079;-73
2021/03/03 01:33:25;;;;;;;35.72;18.38;;;5.40;89.60;;;;;;4998051;28;20419;-74
2021/03/03 01:35:50;;;;;;;37.50;18.42;;;5.40;89.70;;;;;;4994687;28;20037;-74
2021/03/03 01:38:16;;;;;;;35.42;17.92;;;5.40;89.70;;;;;;4995148;28;20029;-74
2021/03/03 01:40:42;;;;;;;32.78;16.95;;;5.30;89.80;;;;;;4994873;28;20089;-74
2021/03/03 01:43:07;;;;;;;32.70;16.63;;;5.30;89.50;;;;;;4993699;28;20034;-74
2021/03/03 01:45:33;;;;;;;36.20;18.45;;;5.30;89.30;;;;;;4994041;28;20034;-75
2021/03/03 01:47:58;;;;;;;39.08;19.02;;;5.30;89.60;;;;;;4997511;28;22388;-74
2021/03/03 01:50:24;;;;;;;35.60;17.83;;;5.30;89.80;;;;;;4976519;28;20042;-74
2021/03/03 01:52:50;;;;;;;36.80;19.17;;;5.30;89.60;;;;;;4997839;28;20054;-75
2021/03/03 01:55:15;;;;;;;36.33;19.10;;;5.30;89.70;;;;;;4995295;28;20116;-74
2021/03/03 01:57:42;;;;;;;34.90;18.80;;;5.30;89.70;;;;;;4993140;28;20447;-75
2021/03/03 02:00:08;;;;;;;36.22;18.35;;;5.30;89.80;;;;;;4989827;28;20034;-75
2021/03/03 02:02:33;;;;;;;36.97;19.58;;;5.30;89.60;;;;;;4994730;28;20042;-73
2021/03/03 02:04:59;;;;;;;43.85;20.15;;;5.30;89.50;;;;;;4998133;28;20037;-75
2021/03/03 02:07:38;;;;;;;40.38;19.50;;;5.20;89.30;;;;;;4996416;28;20064;-75
2021/03/03 02:10:21;;;;;;;38.15;18.45;;;5.20;89.50;;;;;;4997615;28;20038;-74
2021/03/03 02:13:02;;;;;;;42.05;21.15;;;5.20;89.70;;;;;;5000892;28;20033;-75
2021/03/03 02:15:31;;;;;;;43.53;20.98;;;5.20;89.90;;;;;;4993186;28;20034;-75
2021/03/03 02:17:59;;;;;;;46.17;22.25;;;5.10;90.10;;;;;;4996392;28;20033;-73
2021/03/03 02:20:27;;;;;;;44.33;20.60;;;5.10;90.20;;;;;;4984993;28;20431;-75
2021/03/03 02:23:13;;;;;;;45.53;22.42;;;5.10;90.30;;;;;;4989438;28;20463;-75
2021/03/03 02:25:42;;;;;;;42.53;20.98;;;5.10;90.30;;;;;;4996105;28;20026;-75
2021/03/03 02:28:10;;;;;;;45.13;21.88;;;5.10;90.40;;;;;;4994632;28;20065;-75
2021/03/03 02:30:39;;;;;;;42.50;21.92;;;5.00;90.40;;;;;;4992319;28;20026;-75
2021/03/03 02:33:06;;;;;;;41.35;20.95;;;5.00;90.40;;;;;;4995470;28;20088;-75
2021/03/03 02:35:32;;;;;;;38.97;20.00;;;5.00;90.40;;;;;;4993116;28;20034;-75
2021/03/03 02:37:58;;;;;;;40.20;20.92;;;5.00;90.30;;;;;;4993551;28;20037;-75
2021/03/03 02:40:26;;;;;;;41.58;20.13;;;5.00;90.30;;;;;;4991715;28;20034;-75
2021/03/03 02:42:54;;;;;;;38.67;18.92;;;5.00;90.30;;;;;;4993899;28;20030;-75
2021/03/03 02:45:22;;;;;;;41.45;21.27;;;5.00;90.20;;;;;;4980606;28;20036;-75
2021/03/03 02:47:49;;;;;;;37.83;20.40;;;4.90;90.20;;;;;;4991854;28;20057;-74
2021/03/03 02:50:15;;;;;;;45.47;21.88;;;4.90;90.40;;;;;;4994108;28;20036;-75
2021/03/03 02:52:51;;;;;;;37.13;19.77;;;4.90;90.40;;;;;;5000747;28;20034;-75
2021/03/03 02:55:17;;;;;;;37.78;19.92;;;4.90;90.60;;;;;;4981834;28;20035;-75
2021/03/03 02:57:43;;;;;;;40.65;20.45;;;4.80;90.50;;;;;;4993811;28;20131;-75
2021/03/03 03:00:13;;;;;;;34.40;19.30;;;4.80;90.40;;;;;;4995696;28;20387;-75
2021/03/03 03:02:41;;;;;;;41.13;21.95;;;4.80;90.40;;;;;;4999541;28;20395;-74
2021/03/03 03:05:08;;;;;;;41.15;20.52;;;4.80;90.60;;;;;;5002425;28;20026;-74
2021/03/03 03:07:39;;;;;;;45.10;21.23;;;4.80;90.60;;;;;;4995574;28;20064;-75
2021/03/03 03:10:09;;;;;;;41.60;21.92;;;4.70;90.50;;;;;;4997690;28;20766;-75
2021/03/03 03:12:36;;;;;;;39.30;20.02;;;4.70;90.60;;;;;;4992842;28;20431;-75
2021/03/03 03:15:03;;;;;;;42.08;21.25;;;4.70;90.60;;;;;;4997649;28;20380;-75
2021/03/03 03:17:30;;;;;;;43.60;21.83;;;4.70;90.60;;;;;;4998753;28;20030;-75
2021/03/03 03:19:56;;;;;;;39.65;20.50;;;4.70;90.50;;;;;;4997744;28;20089;-75
2021/03/03 03:22:26;;;;;;;50.10;22.13;;;4.70;90.40;;;;;;4996822;28;20022;-75
2021/03/03 03:24:57;;;;;;;52.38;23.65;;;4.70;90.50;;;;;;5001746;28;20121;-75
2021/03/03 03:27:24;;;;;;;59.80;26.38;;;4.60;90.60;;;;;;4996373;28;20460;-75
2021/03/03 03:29:50;;;;;;;64.90;26.30;;;4.60;90.70;;;;;;4996236;28;20041;-74
2021/03/03 03:32:17;;;;;;;66.95;25.25;;;4.60;90.60;;;;;;5001883;28;20152;-75
2021/03/03 03:34:42;;;;;;;67.03;27.50;;;4.60;90.60;;;;;;4997937;28;20033;-74
2021/03/03 03:37:08;;;;;;;73.35;28.63;;;4.60;90.60;;;;;;4998676;28;20031;-74
2021/03/03 03:39:35;;;;;;;70.43;27.08;;;4.60;90.60;;;;;;4996055;28;20057;-75
2021/03/03 03:42:02;;;;;;;69.80;24.90;;;4.50;90.50;;;;;;4997127;28;20033;-74
2021/03/03 03:44:28;;;;;;;64.40;25.52;;;4.50;90.50;;;;;;4999903;28;20166;-75
2021/03/03 03:46:54;;;;;;;67.72;26.33;;;4.50;90.50;;;;;;4998687;28;20109;-74
2021/03/03 03:49:20;;;;;;;69.35;26.75;;;4.50;90.50;;;;;;5005265;28;20399;-75
2021/03/03 03:51:46;;;;;;;62.47;25.15;;;4.50;90.50;;;;;;5001060;28;20037;-75
2021/03/03 03:54:11;;;;;;;79.85;28.77;;;4.50;90.30;;;;;;4983484;28;20022;-75
2021/03/03 03:56:40;;;;;;;78.15;28.35;;;4.40;90.30;;;;;;4995761;28;20034;-74
2021/03/03 03:59:06;;;;;;;70.25;26.30;;;4.40;90.50;;;;;;4990132;28;20077;-75
2021/03/03 04:01:32;;;;;;;77.82;28.85;;;4.40;90.60;;;;;;4995944;28;20057;-75
2021/03/03 04:03:57;;;;;;;77.63;25.85;;;4.40;90.60;;;;;;4997546;28;20019;-74
2021/03/03 04:06:32;;;;;;;84.32;30.17;;;4.30;90.60;;;;;;4998403;28;20157;-75
2021/03/03 04:08:57;;;;;;;64.68;23.42;;;4.30;90.70;;;;;;4993020;28;20108;-74
2021/03/03 04:11:23;;;;;;;76.07;25.70;;;4.40;90.60;;;;;;4991843;28;21767;-75
2021/03/03 04:13:49;;;;;;;80.25;27.55;;;4.40;90.60;;;;;;4994305;28;20042;-73
2021/03/03 04:16:14;;;;;;;86.10;30.50;;;4.30;90.50;;;;;;4978175;28;20125;-75
2021/03/03 04:18:43;;;;;;;92.47;32.53;;;4.30;90.50;;;;;;4993481;28;20030;-74
2021/03/03 04:21:09;;;;;;;97.85;33.40;;;4.30;90.90;;;;;;4991768;28;20026;-74
2021/03/03 04:23:34;;;;;;;79.95;27.85;;;4.30;91.00;;;;;;5000935;28;20027;-75
2021/03/03 04:26:00;;;;;;;85.65;29.52;;;4.30;91.00;;;;;;4999466;28;20023;-74
2021/03/03 04:28:26;;;;;;;93.65;30.83;;;4.30;90.80;;;;;;4996197;28;20017;-74
2021/03/03 04:30:51;;;;;;;95.88;30.33;;;4.30;90.80;;;;;;4978120;28;20129;-74
2021/03/03 04:33:17;;;;;;;81.53;26.30;;;4.30;90.80;;;;;;4998673;28;20065;-75
2021/03/03 04:35:42;;;;;;;94.75;30.70;;;4.20;90.90;;;;;;4992917;28;20038;-75
2021/03/03 04:38:09;;;;;;;82.32;27.45;;;4.30;90.80;;;;;;4994360;28;20032;-75
2021/03/03 04:40:36;;;;;;;85.50;30.02;;;4.30;90.90;;;;;;4997139;28;20468;-74
2021/03/03 04:43:02;;;;;;;90.78;31.25;;;4.20;91.00;;;;;;4992054;28;20080;-75
2021/03/03 04:45:27;;;;;;;76.05;27.92;;;4.20;91.20;;;;;;4998411;28;20018;-75
2021/03/03 04:47:53;;;;;;;84.93;27.98;;;4.20;91.20;;;;;;4978378;28;20025;-75
2021/03/03 04:50:18;;;;;;;77.43;26.73;;;4.10;91.20;;;;;;4993925;28;20039;-75
2021/03/03 04:52:44;;;;;;;79.32;28.67;;;4.10;91.20;;;;;;4995326;28;20440;-75
2021/03/03 04:55:10;;;;;;;72.35;26.73;;;4.10;91.30;;;;;;4987650;28;20112;-74
2021/03/03 04:57:35;;;;;;;86.47;27.70;;;4.00;91.30;;;;;;4999576;28;20030;-75
2021/03/03 05:00:03;;;;;;;78.25;26.63;;;4.00;91.30;;;;;;4994457;28;20030;-75
2021/03/03 05:02:28;;;;;;;77.07;27.23;;;4.00;91.50;;;;;;4994552;28;20080;-74
2021/03/03 05:04:54;;;;;;;88.55;28.80;;;4.00;91.30;;;;;;4993970;28;20026;-75
2021/03/03 05:07:20;;;;;;;70.18;24.30;;;4.00;91.20;;;;;;4997205;28;20045;-75
2021/03/03 05:09:45;;;;;;;88.38;28.38;;;4.00;91.20;;;;;;4996523;28;20022;-75
2021/03/03 05:12:11;;;;;;;87.07;28.52;;;4.00;91.20;;;;;;4998354;28;20045;-74
2021/03/03 05:14:37;;;;;;;81.88;25.98;;;4.00;91.20;;;;;;5000226;28;20081;-74
2021/03/03 05:17:03;;;;;;;73.72;25.58;;;4.00;91.20;;;;;;4989252;28;20041;-74
2021/03/03 05:19:29;;;;;;;72.40;25.83;;;4.00;91.20;;;;;;4990729;28;20026;-75
2021/03/03 05:21:55;;;;;;;71.28;25.02;;;4.00;91.10;;;;;;4985698;28;20026;-75
2021/03/03 05:24:21;;;;;;;79.55;26.67;;;4.00;91.10;;;;;;4999744;28;20022;-74
2021/03/03 05:26:46;;;;;;;82.75;26.27;;;4.00;91.20;;;;;;4991297;28;20062;-75
2021/03/03 05:29:12;;;;;;;81.75;26.80;;;3.90;91.00;;;;;;5000230;28;20018;-75
2021/03/03 05:31:37;;;;;;;84.95;26.17;;;3.90;91.10;;;;;;4990469;28;20030;-76
2021/03/03 05:34:03;;;;;;;73.82;23.48;;;3.90;91.10;;;;;;5000872;28;20037;-74
2021/03/03 05:36:29;;;;;;;84.90;24.55;;;3.90;91.10;;;;;;4997640;28;20019;-75
2021/03/03 05:38:54;;;;;;;79.55;26.50;;;3.90;91.00;;;;;;4993075;28;20488;-74
2021/03/03 05:41:25;;;;;;;79.35;26.58;;;3.90;91.10;;;;;;4996111;28;20117;-71
2021/03/03 05:43:51;;;;;;;84.88;27.25;;;3.90;91.10;;;;;;4996798;28;20480;-72
2021/03/03 05:46:17;;;;;;;77.35;24.63;;;3.90;91.10;;;;;;4997912;28;20042;-72
2021/03/03 05:48:55;;;;;;;92.15;26.45;;;3.90;91.10;;;;;;5002461;28;20507;-71
2021/03/03 05:51:25;;;;;;;98.82;30.70;;;3.90;91.10;;;;;;4999126;28;20475;-72
2021/03/03 05:53:51;;;;;;;90.47;28.52;;;3.90;91.20;;;;;;4997654;28;20037;-72
2021/03/03 05:56:21;;;;;;;96.32;29.17;;;3.90;91.20;;;;;;4996441;28;20026;-72
2021/03/03 05:58:46;;;;;;;86.90;27.63;;;3.90;91.20;;;;;;4996883;28;20040;-71
2021/03/03 06:01:13;;;;;;;76.28;27.35;;;3.90;91.10;;;;;;4995848;28;20038;-70
2021/03/03 06:03:38;;;;;;;90.13;29.98;;;3.90;91.20;;;;;;4995809;28;20044;-72
2021/03/03 06:06:04;;;;;;;94.38;26.33;;;3.90;91.20;;;;;;4995211;28;20026;-70
2021/03/03 06:08:31;;;;;;;72.88;24.42;;;3.90;91.10;;;;;;4984536;28;20121;-71
2021/03/03 06:10:58;;;;;;;67.70;23.48;;;3.90;91.00;;;;;;5000335;28;20038;-71
2021/03/03 06:13:24;;;;;;;63.67;23.13;;;3.90;91.00;;;;;;4996224;28;20041;-72
2021/03/03 06:15:50;;;;;;;82.78;25.83;;;3.80;90.90;;;;;;4993944;28;20023;-73
2021/03/03 06:18:18;;;;;;;80.55;25.15;;;3.80;90.90;;;;;;4991227;28;20444;-74
2021/03/03 06:20:46;;;;;;;79.90;25.13;;;3.70;91.00;;;;;;4994953;28;20026;-73
2021/03/03 06:23:20;;;;;;;75.25;24.02;;;3.80;91.00;;;;;;4998884;28;20079;-73
2021/03/03 06:25:49;;;;;;;60.50;22.10;;;3.70;91.00;;;;;;4978000;28;20396;-73
2021/03/03 06:28:41;;;;;;;66.82;21.60;;;3.70;90.90;;;;;;5000623;28;20052;-73
2021/03/03 06:31:30;;;;;;;72.50;24.95;;;3.70;90.90;;;;;;4987806;28;20147;-74
2021/03/03 06:34:15;;;;;;;67.63;23.23;;;3.70;90.90;;;;;;4988632;28;20518;-74
2021/03/03 06:36:46;;;;;;;68.90;23.35;;;3.70;91.00;;;;;;4983144;28;20055;-73
2021/03/03 06:39:24;;;;;;;74.55;24.88;;;3.60;90.90;;;;;;4998582;28;20026;-74
2021/03/03 06:42:14;;;;;;;61.33;22.30;;;3.70;91.00;;;;;;4999263;28;20503;-73
2021/03/03 06:44:46;;;;;;;70.43;25.23;;;3.60;90.90;;;;;;4996033;28;20038;-75
2021/03/03 06:47:12;;;;;;;62.60;22.75;;;3.60;90.90;;;;;;4979765;28;20034;-74
2021/03/03 06:49:38;;;;;;;77.18;26.60;;;3.60;91.00;;;;;;4982786;28;20039;-74
2021/03/03 06:52:04;;;;;;;82.82;26.45;;;3.60;91.10;;;;;;4984983;28;20018;-74
2021/03/03 06:54:29;;;;;;;84.15;27.27;;;3.60;91.10;;;;;;4991941;28;20038;-74
2021/03/03 06:56:57;;;;;;;90.22;27.77;;;3.60;91.10;;;;;;4987559;28;20080;-74
2021/03/03 06:59:29;;;;;;;75.70;26.42;;;3.60;91.10;;;;;;4988281;28;20030;-74
2021/03/03 07:02:01;;;;;;;79.47;26.05;;;3.60;91.10;;;;;;4987263;28;20041;-74
2021/03/03 07:04:38;;;;;;;87.68;28.27;;;3.60;91.10;;;;;;4997867;28;20400;-77
2021/03/03 07:07:14;;;;;;;72.32;26.05;;;3.60;91.00;;;;;;4980176;28;20058;-72
2021/03/03 07:09:40;;;;;;;68.70;25.90;;;3.60;90.90;;;;;;4995628;28;20380;-74
2021/03/03 07:12:12;;;;;;;69.47;25.60;;;3.60;91.00;;;;;;4994849;28;20029;-74
2021/03/03 07:14:38;;;;;;;;;;;3.60;91.00;;;;;;4993412;28;20078;-74
2021/03/03 07:17:16;;;;;;;59.10;22.90;;;3.60;90.90;;;;;;4980867;28;19949;-74
2021/03/03 07:19:49;;;;;;;78.82;26.13;;;3.60;90.80;;;;;;4991323;28;20030;-72
2021/03/03 07:22:32;;;;;;;71.28;26.17;;;3.60;90.80;;;;;;4987453;28;20023;-77
2021/03/03 07:25:01;;;;;;;63.30;23.92;;;3.60;90.90;;;;;;4981983;28;20026;-74
2021/03/03 07:27:27;;;;;;;75.30;27.73;;;3.60;90.80;;;;;;4990801;28;20030;-73
2021/03/03 07:29:59;;;;;;;82.82;29.58;;;3.60;90.90;;;;;;4983081;28;20031;-73
2021/03/03 07:32:24;;;;;;;73.13;26.88;;;3.70;91.40;;;;;;4989913;28;20023;-74
2021/03/03 07:34:55;;;;;;;71.65;25.70;;;3.90;90.80;;;;;;4987483;28;20045;-74
2021/03/03 07:37:23;;;;;;;62.85;23.63;;;3.90;90.50;;;;;;4993209;28;20029;-74
2021/03/03 07:40:04;;;;;;;64.05;25.33;;;3.90;90.50;;;;;;4989743;28;20403;-74
2021/03/03 07:42:32;;;;;;;72.10;24.52;;;3.90;90.40;;;;;;4993016;28;20026;-73
2021/03/03 07:45:00;;;;;;;68.00;24.80;;;3.80;90.40;;;;;;4993987;28;20431;-74
2021/03/03 07:47:28;;;;;;;57.22;23.80;;;3.80;90.60;;;;;;4993857;28;20092;-73
2021/03/03 07:50:19;;;;;;;69.88;25.02;;;3.80;90.60;;;;;;4993786;28;20080;-74
2021/03/03 07:52:52;;;;;;;66.00;24.70;;;3.80;90.70;;;;;;5006267;28;20030;-73
2021/03/03 07:55:18;;;;;;;69.32;26.23;;;3.80;90.40;;;;;;4992058;28;20113;-73
2021/03/03 07:57:47;;;;;;;74.15;25.90;;;3.80;90.60;;;;;;4996779;28;20579;-73
2021/03/03 08:00:19;;;;;;;68.93;26.67;;;3.90;90.60;;;;;;4995630;28;20027;-75
2021/03/03 08:02:45;;;;;;;70.53;26.23;;;3.90;90.60;;;;;;4991305;28;20033;-73
2021/03/03 08:05:12;;;;;;;67.22;25.60;;;3.90;90.50;;;;;;4994354;28;20158;-73
2021/03/03 08:07:37;;;;;;;64.75;25.60;;;3.90;90.30;;;;;;4997791;28;20037;-73
2021/03/03 08:10:18;;;;;;;65.28;25.77;;;3.90;90.40;;;;;;4994670;28;20030;-74
2021/03/03 08:13:07;;;;;;;69.70;25.40;;;3.90;90.40;;;;;;4993470;28;20076;-73
2021/03/03 08:15:34;;;;;;;63.60;22.42;;;4.00;90.40;;;;;;4999454;28;20030;-71
2021/03/03 08:18:15;;;;;;;61.72;25.13;;;4.00;90.40;;;;;;4997634;28;20023;-72
2021/03/03 08:20:42;;;;;;;62.78;24.38;;;4.00;90.30;;;;;;4995519;28;20026;-73
2021/03/03 08:23:08;;;;;;;77.43;25.75;;;4.10;90.30;;;;;;4997833;28;20040;-76
2021/03/03 08:25:47;;;;;;;61.38;24.77;;;4.10;90.30;;;;;;4994476;28;20104;-73
2021/03/03 08:28:26;;;;;;;62.47;24.90;;;4.10;90.20;;;;;;5000998;28;20089;-72
2021/03/03 08:31:16;;;;;;;52.15;22.02;;;4.20;90.20;;;;;;4979596;28;20037;-72
2021/03/03 08:33:55;;;;;;;58.70;22.63;;;4.20;90.20;;;;;;4995948;28;20037;-73
2021/03/03 08:36:21;;;;;;;51.63;22.88;;;4.30;90.20;;;;;;5000076;28;20395;-73
2021/03/03 08:39:11;;;;;;;53.40;20.58;;;4.30;90.10;;;;;;4997287;28;20030;-73
2021/03/03 08:41:39;;;;;;;48.78;21.88;;;4.30;90.10;;;;;;4995384;28;20027;-73
2021/03/03 08:44:10;;;;;;;48.88;21.23;;;4.40;90.00;;;;;;4995807;28;20391;-72
2021/03/03 08:46:41;;;;;;;42.20;20.55;;;4.40;90.00;;;;;;4993955;28;20096;-74
2021/03/03 08:49:07;;;;;;;41.60;19.42;;;4.50;90.00;;;;;;4994968;28;20035;-73
2021/03/03 08:51:40;;;;;;;41.38;19.80;;;4.60;90.00;;;;;;4993309;28;20057;-74
2021/03/03 08:54:19;;;;;;;39.72;18.65;;;4.70;90.20;;;;;;5011156;28;20014;-72
2021/03/03 08:56:45;;;;;;;40.85;19.30;;;4.70;89.80;;;;;;4987900;28;20023;-78
2021/03/03 08:59:36;;;;;;;38.67;18.58;;;4.80;89.60;;;;;;4997122;28;20072;-73
2021/03/03 09:02:18;;;;;;;43.27;19.30;;;4.80;89.60;;;;;;4994950;28;20041;-73
2021/03/03 09:04:51;;;;;;;34.45;17.63;;;4.90;89.80;;;;;;4994809;28;20029;-74
2021/03/03 09:07:20;;;;;;;34.65;18.00;;;4.90;89.50;;;;;;4994399;28;20026;-73
2021/03/03 09:09:50;;;;;;;36.90;19.05;;;5.00;89.30;;;;;;4996259;28;20023;-73
2021/03/03 09:12:19;;;;;;;35.13;17.58;;;5.00;89.00;;;;;;4994709;28;20030;-73
2021/03/03 09:14:46;;;;;;;33.65;18.05;;;5.10;89.10;;;;;;4996643;28;20026;-73
2021/03/03 09:17:15;;;;;;;39.13;17.80;;;5.20;88.50;;;;;;4980626;28;20547;-73
2021/03/03 09:19:44;;;;;;;40.42;19.15;;;5.20;88.60;;;;;;4992559;28;20069;-73
2021/03/03 09:22:17;;;;;;;37.70;17.98;;;5.30;88.20;;;;;;4997559;28;20030;-73
2021/03/03 09:24:47;;;;;;;33.42;16.70;;;5.40;88.20;;;;;;5001969;28;20075;-74
2021/03/03 09:27:13;;;;;;;33.92;18.05;;;5.50;88.20;;;;;;4994848;28;20117;-73
2021/03/03 09:29:40;;;;;;;32.75;17.17;;;5.50;87.90;;;;;;4993399;28;20171;-73
2021/03/03 09:32:07;;;;;;;34.88;16.48;;;5.50;87.70;;;;;;4995065;28;20408;-74
2021/03/03 09:34:34;;;;;;;30.75;16.52;;;5.60;87.60;;;;;;4991498;28;20508;-73
2021/03/03 09:37:02;;;;;;;32.08;16.60;;;5.70;87.60;;;;;;4995203;28;20503;-75
2021/03/03 09:39:29;;;;;;;31.25;16.65;;;5.80;87.50;;;;;;5002189;28;20040;-74
2021/03/03 09:42:01;;;;;;;36.10;17.88;;;5.90;87.30;;;;;;4999670;28;20026;-74
2021/03/03 09:44:42;;;;;;;34.20;17.67;;;6.00;86.90;;;;;;4989489;28;20018;-74
2021/03/03 09:47:07;;;;;;;31.83;16.73;;;6.10;86.70;;;;;;4992476;28;20018;-75
2021/03/03 09:49:35;;;;;;;33.45;16.63;;;6.20;86.50;;;;;;4996970;28;20037;-75
2021/03/03 09:52:00;;;;;;;30.90;17.48;;;6.30;86.60;;;;;;4998035;28;20395;-75
2021/03/03 09:54:29;;;;;;;38.70;17.73;;;6.50;85.90;;;;;;4998008;28;20029;-74
2021/03/03 09:57:05;;;;;;;33.50;17.90;;;6.60;85.20;;;;;;4995619;28;20057;-71
2021/03/03 09:59:32;;;;;;;33.35;17.25;;;6.80;85.20;;;;;;4994432;28;20026;-72
2021/03/03 10:01:58;;;;;;;35.67;16.73;;;6.90;85.10;;;;;;4994577;28;20058;-71
2021/03/03 10:04:25;;;;;;;33.15;17.55;;;7.10;83.60;;;;;;4997016;28;20409;-73
2021/03/03 10:06:52;;;;;;;31.40;17.20;;;7.30;83.20;;;;;;4996475;28;20019;-71
2021/03/03 10:09:18;;;;;;;33.25;17.58;;;7.60;82.00;;;;;;4991709;28;20244;-71
2021/03/03 10:11:45;;;;;;;33.08;16.77;;;7.80;82.70;;;;;;4994671;28;20057;-71
2021/03/03 10:14:11;;;;;;;38.05;17.88;;;8.00;82.70;;;;;;5003318;28;20021;-72
2021/03/03 10:16:36;;;;;;;32.22;17.10;;;8.20;84.10;;;;;;4996550;28;20068;-70
2021/03/03 10:19:06;;;;;;;30.90;17.17;;;8.50;82.30;;;;;;4997440;28;20098;-71
2021/03/03 10:21:36;;;;;;;29.17;16.42;;;8.70;83.20;;;;;;4995174;28;20113;-71
2021/03/03 10:24:16;;;;;;;28.70;16.77;;;9.20;81.70;;;;;;4991569;28;20106;-72
2021/03/03 10:26:46;;;;;;;24.63;15.57;;;9.60;79.10;;;;;;4996742;28;20030;-72
2021/03/03 10:29:29;;;;;;;30.80;16.17;;;10.00;78.80;;;;;;4999717;28;20109;-71
2021/03/03 10:32:09;;;;;;;25.75;15.25;;;10.40;73.70;;;;;;4999438;28;20277;-73
2021/03/03 10:34:35;;;;;;;26.58;14.65;;;11.10;73.50;;;;;;4997435;28;20444;-69
2021/03/03 10:37:01;;;;;;;27.63;15.38;;;11.70;69.60;;;;;;4998031;28;20070;-70
2021/03/03 10:39:28;;;;;;;24.13;15.35;;;11.80;69.40;;;;;;4995632;28;20026;-69
2021/03/03 10:42:05;;;;;;;26.67;14.93;;;11.70;69.30;;;;;;4999596;28;20046;-70
2021/03/03 10:44:42;;;;;;;34.15;17.00;;;11.70;71.70;;;;;;4997783;28;20376;-67
2021/03/03 10:47:08;;;;;;;26.25;15.70;;;12.00;67.20;;;;;;4980518;28;20023;-67
2021/03/03 10:49:39;;;;;;;26.27;15.18;;;12.50;68.40;;;;;;4995329;28;20476;-69
2021/03/03 10:52:20;;;;;;;27.60;14.90;;;13.30;66.80;;;;;;4994695;28;20112;-69
2021/03/03 10:54:46;;;;;;;22.73;14.50;;;14.20;63.20;;;;;;4997759;28;20038;-68
2021/03/03 10:57:12;;;;;;;25.60;14.52;;;14.80;62.40;;;;;;4994979;28;20105;-69
2021/03/03 10:59:40;;;;;;;28.25;17.20;;;15.30;61.10;;;;;;4996032;28;20448;-68
2021/03/03 11:02:07;;;;;;;24.90;15.75;;;15.50;58.00;;;;;;4994804;28;20419;-69
2021/03/03 11:04:44;;;;;;;24.60;13.77;;;15.90;56.70;;;;;;4995401;28;20026;-74
2021/03/03 11:07:12;;;;;;;22.10;14.07;;;16.20;57.10;;;;;;4989731;28;20120;-74
2021/03/03 11:09:38;;;;;;;24.67;15.18;;;16.90;54.10;;;;;;4996759;28;20034;-75
2021/03/03 11:12:04;;;;;;;27.15;14.85;;;17.20;51.90;;;;;;4993193;28;20026;-75
2021/03/03 11:14:31;;;;;;;20.13;13.95;;;17.40;49.70;;;;;;4992437;28;20044;-76
2021/03/03 11:16:58;;;;;;;24.83;15.70;;;17.20;51.40;;;;;;4997523;28;20018;-75
2021/03/03 11:19:26;;;;;;;26.77;14.90;;;17.60;50.00;;;;;;4998227;28;20042;-76
2021/03/03 11:21:52;;;;;;;24.25;15.88;;;17.80;51.80;;;;;;4979023;28;20026;-70
2021/03/03 11:24:22;;;;;;;20.17;14.88;;;18.20;50.20;;;;;;4999392;28;20018;-70
2021/03/03 11:26:48;;;;;;;22.08;15.20;;;17.90;50.80;;;;;;4999032;28;20480;-72
2021/03/03 11:29:15;;;;;;;27.63;16.55;;;17.90;50.70;;;;;;5000526;28;20485;-69
2021/03/03 11:31:42;;;;;;;29.00;16.50;;;17.70;49.00;;;;;;4995779;28;20045;-70
2021/03/03 11:34:09;;;;;;;27.80;15.52;;;17.40;49.10;;;;;;4998552;28;20197;-70
2021/03/03 11:36:35;;;;;;;24.90;16.85;;;17.10;51.70;;;;;;4997963;28;20080;-69
2021/03/03 11:39:00;;;;;;;27.88;16.88;;;16.90;50.40;;;;;;4998618;28;20030;-69
2021/03/03 11:41:27;;;;;;;24.90;15.80;;;16.70;50.40;;;;;;4999969;28;20034;-69
2021/03/03 11:43:52;;;;;;;26.88;17.50;;;16.30;52.20;;;;;;4999219;28;20040;-70
2021/03/03 11:46:21;;;;;;;25.08;16.00;;;16.00;52.80;;;;;;4998391;28;20030;-69
2021/03/03 11:48:47;;;;;;;30.35;16.58;;;15.70;53.10;;;;;;4998033;28;20475;-70
2021/03/03 11:51:13;;;;;;;24.13;15.88;;;15.40;53.60;;;;;;4998215;28;20133;-70
2021/03/03 11:53:39;;;;;;;33.38;18.10;;;15.00;54.50;;;;;;4996963;28;20018;-70
2021/03/03 11:56:05;;;;;;;25.73;15.48;;;14.60;57.00;;;;;;4996789;28;20492;-70
2021/03/03 11:58:30;;;;;;;35.58;16.63;;;14.10;59.00;;;;;;4994842;28;20030;-69
2021/03/03 12:00:56;;;;;;;32.80;16.42;;;14.00;58.20;;;;;;4998751;28;20487;-70
2021/03/03 12:03:22;;;;;;;30.92;17.77;;;13.60;59.70;;;;;;4991262;28;20089;-69
2021/03/03 12:05:47;;;;;;;30.92;17.33;;;13.40;60.90;;;;;;4993981;28;20070;-69
2021/03/03 12:08:13;;;;;;;31.13;17.50;;;13.20;61.10;;;;;;4978423;28;20045;-75
2021/03/03 12:10:39;;;;;;;31.55;18.25;;;13.00;61.90;;;;;;4970907;28;20120;-75
2021/03/03 12:13:05;;;;;;;32.08;17.65;;;12.90;62.10;;;;;;4995203;28;20026;-75
2021/03/03 12:15:31;;;;;;;33.60;17.42;;;12.80;61.70;;;;;;4980121;28;20040;-73
2021/03/03 12:17:57;;;;;;;27.15;16.55;;;12.70;62.80;;;;;;4982196;28;20030;-74
2021/03/03 12:20:24;;;;;;;38.75;19.13;;;12.60;62.90;;;;;;4997450;28;20156;-75
2021/03/03 12:22:50;;;;;;;29.38;17.02;;;12.60;63.10;;;;;;4996127;28;20112;-75
2021/03/03 12:25:16;;;;;;;28.58;15.63;;;12.60;63.40;;;;;;4998261;28;20030;-75
2021/03/03 12:27:42;;;;;;;33.90;16.92;;;12.50;64.30;;;;;;4996571;28;20284;-75
2021/03/03 12:30:08;;;;;;;27.42;16.05;;;12.60;64.00;;;;;;4989333;28;20484;-76
2021/03/03 12:32:34;;;;;;;36.03;17.33;;;12.70;63.70;;;;;;4996949;28;20027;-75
2021/03/03 12:35:00;;;;;;;29.77;17.23;;;12.60;64.20;;;;;;4994945;28;20125;-75
2021/03/03 12:37:26;;;;;;;29.70;16.77;;;12.60;64.10;;;;;;5003515;28;20080;-75
2021/03/03 12:39:53;;;;;;;33.70;18.98;;;12.60;64.20;;;;;;4998268;28;20400;-75
2021/03/03 12:42:19;;;;;;;35.30;19.08;;;12.70;63.80;;;;;;4997615;28;20033;-75